Classifiche di sempre
Migliori tempi personali validi di team tra tutti gli eventi e le stagioni. Ogni team compare una sola volta per divisione.
Cerca per nome e apri la pagina in cui è classificato questo record di divisione.
137,321 team in classifica
| Pos. | Pos. AG | Team | Nazionalità | Categoria età | TempoMiglior tempo | Distacco |
|---|---|---|---|---|---|---|
| 8476 | -- | Emil Andersen & Kasper BruunDEN · M MU29 | DEN | M MU29 | 1:01:11 | +13:31 |
| 8477 | #3425 | Xavier Schurtz & Scott SheridanM 30-34 · AG #3425 | -- | M 30-34 | 1:01:11 | +13:31 |
| 8478 | #3426 | Tom Shiel & Scott TapperGBR · M 30-34 · AG #3426 | GBR | M 30-34 | 1:01:11 | +13:31 |
| 8479 | #3429 | Ramy Bouzouita Bouzouita & Alban RoquignyM 30-34 · AG #3429 | -- | M 30-34 | 1:01:11 | +13:31 |
| 8480 | #3430 | Maxime Moulin & Yoan ChotkanFRA · M 30-34 · AG #3430 | FRA | M 30-34 | 1:01:11 | +13:31 |
| 8481 | -- | Thomas MOL & Joep SCHILLEMANSNED · M MU29 | NED | M MU29 | 1:01:11 | +13:31 |
| 8482 | #3427 | Mike Soonieus & Chiel ClaesenNED · M 30-34 · AG #3427 | NED | M 30-34 | 1:01:11 | +13:31 |
| 8483 | #3431 | Sebastian Geisel & Alexander EngelGER · M 30-34 · AG #3431 | GER | M 30-34 | 1:01:11 | +13:31 |
| 8484 | #3432 | Tim Sloane & Alexander VulkanovskiAUS · M 30-34 · AG #3432 | AUS | M 30-34 | 1:01:11 | +13:31 |
| 8485 | #62 | René Niehues & Lennart WeberGER · M 16-29 · AG #62 | GER | M 16-29 | 1:01:11 | +13:31 |
| 8486 | #597 | Trevis Daras & William RUDDICKFRA · M 16-24 · AG #597 | FRA | M 16-24 | 1:01:11 | +13:31 |
| 8487 | #3433 | Jonathan Deloof & Romain RoussieauBEL · M 30-34 · AG #3433 | BEL | M 30-34 | 1:01:11 | +13:31 |
| 8488 | #3434 | Samuel Schollasch & Errol BernardRSA · M 30-34 · AG #3434 | RSA | M 30-34 | 1:01:11 | +13:31 |
| 8489 | #1432 | Hugh McDougall & Dom MarkAUS · M 25-29 · AG #1432 | AUS | M 25-29 | 1:01:11 | +13:31 |
| 8490 | #1433 | Dylan Lennox & Sonny StewartGBR · M 25-29 · AG #1433 | GBR | M 25-29 | 1:01:11 | +13:31 |
| 8491 | #858 | Miguel angel Luna Cárdenas & David Jiménez floridoESP · M 35-39 · AG #858 | ESP | M 35-39 | 1:01:11 | +13:31 |
| 8492 | #3435 | Matt Dewhurst & Matt SmithGBR · M 30-34 · AG #3435 | GBR | M 30-34 | 1:01:11 | +13:31 |
| 8493 | #598 | Dariel Tunay & Liam SeawardGBR · M 16-24 · AG #598 | GBR | M 16-24 | 1:01:11 | +13:31 |
| 8494 | #1434 | Nick Abraham & Keegan ElderUSA · M 25-29 · AG #1434 | USA | M 25-29 | 1:01:12 | +13:32 |
| 8495 | #599 | Valentijn Van De Pas & Lucas Van HaperenNED · M 16-24 · AG #599 | NED | M 16-24 | 1:01:12 | +13:32 |
| 8496 | #3436 | Matthew Jones & Samuel JonesGBR · M 30-34 · AG #3436 | GBR | M 30-34 | 1:01:12 | +13:32 |
| 8497 | #3446 | Halder Faraj & Michael Jerry MillarsonNED · M 30-34 · AG #3446 | NED | M 30-34 | 1:01:12 | +13:32 |
| 8498 | #1435 | Jarno Hamming & Jordi HammingNED · M 25-29 · AG #1435 | NED | M 25-29 | 1:01:12 | +13:32 |
| 8499 | #3437 | Joe Sulis & Dean O’SullivanAUS · M 30-34 · AG #3437 | AUS | M 30-34 | 1:01:12 | +13:32 |
| 8500 | #3439 | Joshua Kriesel & Jeremy SteelM 30-34 · AG #3439 | -- | M 30-34 | 1:01:12 | +13:32 |
Pagina 340 di 5,493